createdAt,value
2023-05-21T00:00:49.256Z,88.07
2023-05-21T00:01:49.261Z,88.07
2023-05-21T00:02:49.455Z,88.15
2023-05-21T00:03:49.438Z,88.18
2023-05-21T00:04:49.217Z,88.20
2023-05-21T00:05:49.280Z,88.27
2023-05-21T00:06:49.187Z,88.30
2023-05-21T00:07:49.158Z,88.29
2023-05-21T00:08:47.236Z,88.32
2023-05-21T00:09:49.143Z,88.31
2023-05-21T00:10:49.148Z,88.31
2023-05-21T00:11:49.124Z,88.25
2023-05-21T00:12:49.101Z,88.20
2023-05-21T00:13:49.090Z,88.10
2023-05-21T00:14:49.085Z,88.12
2023-05-21T00:15:49.067Z,88.12
2023-05-21T00:16:49.127Z,88.06
2023-05-21T00:17:49.102Z,88.01
2023-05-21T00:18:49.114Z,88.09
2023-05-21T00:19:49.023Z,88.15
2023-05-21T00:20:48.987Z,88.18
2023-05-21T00:21:49.009Z,88.18
2023-05-21T00:22:48.963Z,88.19
2023-05-21T00:23:48.974Z,88.20
2023-05-21T00:24:48.947Z,88.22
2023-05-21T00:25:48.931Z,88.27
2023-05-21T00:26:48.915Z,88.34
2023-05-21T00:27:48.915Z,88.28
2023-05-21T00:28:48.879Z,88.29
2023-05-21T00:29:48.877Z,88.34
2023-05-21T00:30:48.859Z,88.36
2023-05-21T00:31:49.014Z,88.42
2023-05-21T00:32:48.828Z,88.45
2023-05-21T00:33:48.836Z,88.42
2023-05-21T00:34:48.815Z,88.55
2023-05-21T00:35:48.781Z,88.57
2023-05-21T00:36:48.788Z,88.56
2023-05-21T00:37:48.785Z,88.50
2023-05-21T00:38:48.788Z,88.49
2023-05-21T00:39:48.728Z,88.52
2023-05-21T00:40:48.726Z,88.58
2023-05-21T00:41:48.757Z,88.56
2023-05-21T00:42:48.680Z,88.48
2023-05-21T00:43:48.733Z,88.51
2023-05-21T00:44:48.677Z,88.56
2023-05-21T00:45:48.768Z,88.51
2023-05-21T00:46:48.655Z,88.62
2023-05-21T00:47:48.699Z,88.52
2023-05-21T00:48:48.611Z,88.48
2023-05-21T00:49:48.601Z,88.48
2023-05-21T00:50:48.577Z,88.51
2023-05-21T00:51:48.568Z,88.41
2023-05-21T00:52:48.568Z,88.38
2023-05-21T00:53:48.553Z,88.37
2023-05-21T00:54:48.536Z,88.40
2023-05-21T00:55:48.502Z,88.43
2023-05-21T00:56:48.482Z,88.40
2023-05-21T00:57:48.491Z,88.39
2023-05-21T00:58:48.461Z,88.37
2023-05-21T00:59:48.456Z,88.42
2023-05-21T01:00:48.452Z,88.47
2023-05-21T01:01:48.501Z,88.50
2023-05-21T01:02:48.488Z,88.53
2023-05-21T01:03:48.514Z,88.54
2023-05-21T01:04:48.401Z,88.56
2023-05-21T01:05:48.369Z,88.64
2023-05-21T01:06:48.368Z,88.64
2023-05-21T01:07:48.369Z,88.75
2023-05-21T01:08:48.325Z,88.75
2023-05-21T01:09:48.315Z,88.72
2023-05-21T01:10:48.293Z,88.69
2023-05-21T01:11:48.301Z,88.63
2023-05-21T01:12:48.253Z,88.67
2023-05-21T01:13:48.262Z,88.67
2023-05-21T01:14:48.241Z,88.75
2023-05-21T01:15:48.223Z,88.75
2023-05-21T01:16:48.353Z,88.80
2023-05-21T01:17:48.273Z,88.72
2023-05-21T01:18:48.264Z,88.73
2023-05-21T01:19:48.257Z,88.75
2023-05-21T01:20:48.210Z,88.69
2023-05-21T01:21:48.157Z,88.75
2023-05-21T01:22:48.136Z,88.69
2023-05-21T01:23:48.121Z,88.72
2023-05-21T01:24:48.116Z,88.77
2023-05-21T01:25:48.608Z,88.83
2023-05-21T01:26:48.089Z,88.80
2023-05-21T01:27:48.064Z,88.83
2023-05-21T01:28:48.072Z,88.79
2023-05-21T01:29:48.041Z,88.81
2023-05-21T01:30:46.395Z,88.77
2023-05-21T01:31:48.027Z,88.77
2023-05-21T01:32:48.124Z,88.74
2023-05-21T01:33:48.055Z,88.84
2023-05-21T01:34:47.964Z,88.83
2023-05-21T01:35:47.971Z,88.85
2023-05-21T01:36:47.937Z,88.94
2023-05-21T01:37:47.940Z,89.02
2023-05-21T01:38:47.909Z,88.93
2023-05-21T01:39:47.915Z,89.07
2023-05-21T01:40:47.901Z,89.12
2023-05-21T01:41:47.876Z,89.18
2023-05-21T01:42:47.875Z,89.19
2023-05-21T01:43:47.850Z,89.28
2023-05-21T01:44:47.845Z,89.34
2023-05-21T01:45:47.832Z,89.46
2023-05-21T01:46:47.413Z,89.53
2023-05-21T01:47:47.861Z,89.56
2023-05-21T01:48:47.780Z,89.64
2023-05-21T01:49:47.786Z,89.68
2023-05-21T01:50:47.767Z,89.75
2023-05-21T01:51:47.731Z,89.85
2023-05-21T01:52:47.739Z,89.90
2023-05-21T01:53:47.711Z,89.88
2023-05-21T01:54:47.744Z,89.85
2023-05-21T01:55:47.684Z,89.90
2023-05-21T01:56:47.672Z,89.88
2023-05-21T01:57:47.661Z,89.93
2023-05-21T01:58:47.626Z,90.01
2023-05-21T01:59:47.644Z,90.02
2023-05-21T02:00:47.610Z,90.16
2023-05-21T02:01:47.627Z,90.21
2023-05-21T02:02:47.699Z,90.19
2023-05-21T02:03:47.680Z,90.18
2023-05-21T02:04:47.575Z,90.26
2023-05-21T02:05:47.563Z,90.35
2023-05-21T02:06:47.025Z,90.38
2023-05-21T02:07:47.525Z,90.47
2023-05-21T02:08:47.007Z,90.51
2023-05-21T02:09:47.489Z,90.57
2023-05-21T02:10:47.485Z,90.53
2023-05-21T02:11:47.454Z,90.65
2023-05-21T02:12:47.480Z,90.65
2023-05-21T02:13:47.452Z,90.73
2023-05-21T02:14:47.422Z,90.72
2023-05-21T02:15:47.400Z,90.86
2023-05-21T02:16:47.436Z,90.89
2023-05-21T02:17:47.410Z,90.95
2023-05-21T02:18:47.416Z,90.97
2023-05-21T02:19:47.371Z,91.08
2023-05-21T02:20:47.333Z,91.14
2023-05-21T02:21:47.333Z,91.29
2023-05-21T02:22:47.345Z,91.37
2023-05-21T02:23:47.308Z,91.40
2023-05-21T02:24:47.282Z,91.37
2023-05-21T02:25:47.292Z,91.45
2023-05-21T02:26:47.256Z,91.54
2023-05-21T02:27:47.260Z,91.66
2023-05-21T02:28:47.232Z,91.73
2023-05-21T02:29:47.287Z,91.76
2023-05-21T02:30:47.190Z,91.81
2023-05-21T02:31:47.201Z,91.90
2023-05-21T02:32:47.171Z,91.95
2023-05-21T02:33:47.172Z,91.97
2023-05-21T02:34:47.160Z,92.04
2023-05-21T02:35:47.128Z,92.11
2023-05-21T02:36:47.140Z,92.14
2023-05-21T02:37:47.163Z,92.21
2023-05-21T02:38:47.081Z,92.26
2023-05-21T02:39:47.079Z,92.39
2023-05-21T02:40:47.066Z,92.32
2023-05-21T02:41:47.057Z,92.47
2023-05-21T02:42:47.052Z,92.46
2023-05-21T02:43:47.038Z,92.53
2023-05-21T02:44:47.017Z,92.47
2023-05-21T02:45:47.041Z,92.62
2023-05-21T02:46:46.997Z,92.64
2023-05-21T02:47:47.023Z,92.65
2023-05-21T02:48:46.962Z,92.64
2023-05-21T02:49:46.943Z,92.74
2023-05-21T02:50:46.922Z,92.79
2023-05-21T02:51:46.923Z,92.94
2023-05-21T02:52:46.908Z,93.10
2023-05-21T02:53:46.897Z,93.20
2023-05-21T02:54:46.873Z,93.24
2023-05-21T02:55:46.860Z,93.28
2023-05-21T02:56:46.864Z,93.47
2023-05-21T02:57:46.841Z,93.54
2023-05-21T02:58:46.815Z,93.68
2023-05-21T02:59:46.855Z,93.77
2023-05-21T03:00:46.793Z,93.84
2023-05-21T03:01:46.835Z,93.87
2023-05-21T03:02:46.808Z,94.02
2023-05-21T03:03:46.789Z,94.16
2023-05-21T03:04:46.794Z,94.26
2023-05-21T03:05:46.731Z,94.36
2023-05-21T03:06:46.706Z,94.41
2023-05-21T03:07:46.686Z,94.45
2023-05-21T03:08:46.681Z,94.54
2023-05-21T03:09:46.685Z,94.73
2023-05-21T03:10:46.660Z,94.81
2023-05-21T03:11:46.643Z,94.91
2023-05-21T03:12:46.618Z,94.97
2023-05-21T03:13:46.624Z,95.06
2023-05-21T03:14:46.653Z,95.19
2023-05-21T03:15:46.596Z,95.33
2023-05-21T03:16:46.589Z,95.38
2023-05-21T03:17:46.588Z,95.45
2023-05-21T03:18:46.548Z,95.51
2023-05-21T03:19:46.536Z,95.55
2023-05-21T03:20:46.524Z,95.58
2023-05-21T03:21:46.504Z,95.70
2023-05-21T03:22:46.512Z,95.84
2023-05-21T03:23:46.481Z,95.97
2023-05-21T03:24:46.479Z,96.12
2023-05-21T03:25:46.436Z,96.20
2023-05-21T03:26:46.424Z,96.21
2023-05-21T03:27:46.408Z,96.33
2023-05-21T03:28:46.417Z,96.45
2023-05-21T03:29:46.397Z,96.54
2023-05-21T03:30:46.528Z,96.67
2023-05-21T03:31:46.418Z,96.69
2023-05-21T03:32:46.414Z,96.74
2023-05-21T03:33:46.338Z,96.85
2023-05-21T03:34:46.327Z,96.95
2023-05-21T03:35:46.304Z,97.04
2023-05-21T03:36:46.282Z,97.09
2023-05-21T03:37:46.303Z,97.09
2023-05-21T03:38:46.255Z,97.11
2023-05-21T03:39:46.272Z,97.17
2023-05-21T03:40:46.238Z,97.28
2023-05-21T03:41:46.226Z,97.32
2023-05-21T03:42:46.218Z,97.38
2023-05-21T03:43:46.206Z,97.43
2023-05-21T03:44:46.235Z,97.50
2023-05-21T03:45:46.230Z,97.54
2023-05-21T03:46:46.153Z,97.56
2023-05-21T03:47:46.209Z,97.58
2023-05-21T03:48:46.172Z,97.56
2023-05-21T03:49:46.126Z,97.56
2023-05-21T03:50:46.089Z,97.49
2023-05-21T03:51:46.085Z,97.50
2023-05-21T03:52:46.106Z,97.51
2023-05-21T03:53:46.064Z,97.50
2023-05-21T03:54:46.046Z,97.49
2023-05-21T03:55:46.038Z,97.46
2023-05-21T03:56:46.027Z,97.43
2023-05-21T03:57:46.025Z,97.40
2023-05-21T03:58:46.002Z,97.43
2023-05-21T03:59:45.989Z,97.42
2023-05-21T04:00:45.973Z,97.32
2023-05-21T04:01:45.969Z,97.25
2023-05-21T04:02:46.015Z,97.32
2023-05-21T04:03:46.019Z,97.29
2023-05-21T04:04:46.005Z,97.10
2023-05-21T04:05:45.912Z,96.93
2023-05-21T04:06:45.901Z,96.83
2023-05-21T04:07:45.878Z,96.66
2023-05-21T04:08:45.860Z,96.46
2023-05-21T04:09:45.826Z,96.27
2023-05-21T04:10:45.852Z,96.18
2023-05-21T04:11:45.817Z,96.22
2023-05-21T04:12:45.806Z,96.21
2023-05-21T04:13:45.801Z,96.30
2023-05-21T04:14:45.770Z,96.40
2023-05-21T04:15:45.771Z,96.39
2023-05-21T04:16:45.729Z,96.31
2023-05-21T04:17:45.780Z,96.34
2023-05-21T04:18:45.828Z,96.34
2023-05-21T04:19:45.697Z,96.34
2023-05-21T04:20:45.699Z,96.34
2023-05-21T04:21:45.684Z,96.03
2023-05-21T04:22:45.669Z,95.88
2023-05-21T04:23:45.648Z,95.85
2023-05-21T04:24:45.632Z,95.86
2023-05-21T04:25:45.628Z,95.65
2023-05-21T04:26:45.604Z,95.47
2023-05-21T04:27:45.589Z,95.39
2023-05-21T04:28:45.590Z,95.32
2023-05-21T04:29:45.067Z,95.33
2023-05-21T04:30:45.541Z,95.24
2023-05-21T04:31:45.577Z,95.11
2023-05-21T04:32:45.532Z,95.03
2023-05-21T04:33:45.503Z,94.88
2023-05-21T04:34:45.503Z,94.71
2023-05-21T04:35:45.507Z,94.50
2023-05-21T04:36:45.475Z,94.29
2023-05-21T04:37:45.462Z,94.09
2023-05-21T04:38:45.432Z,93.87
2023-05-21T04:39:45.421Z,93.79
2023-05-21T04:40:45.426Z,93.59
2023-05-21T04:41:45.401Z,93.42
2023-05-21T04:42:45.380Z,93.29
2023-05-21T04:43:45.370Z,93.05
2023-05-21T04:44:45.379Z,92.88
2023-05-21T04:45:45.362Z,92.62
2023-05-21T04:46:45.381Z,92.44
2023-05-21T04:47:45.366Z,92.24
2023-05-21T04:48:45.305Z,92.09
2023-05-21T04:49:45.281Z,91.94
2023-05-21T04:50:45.300Z,91.81
2023-05-21T04:51:45.281Z,91.84
2023-05-21T04:52:45.249Z,91.64
2023-05-21T04:53:45.251Z,91.52
2023-05-21T04:54:45.265Z,91.53
2023-05-21T04:55:43.501Z,91.47
2023-05-21T04:56:45.211Z,91.47
2023-05-21T04:57:45.196Z,91.37
2023-05-21T04:58:45.174Z,91.31
2023-05-21T04:59:45.194Z,91.17
2023-05-21T05:00:45.689Z,91.03
2023-05-21T05:01:45.125Z,90.94
2023-05-21T05:02:45.207Z,90.73
2023-05-21T05:03:45.141Z,90.08
2023-05-21T05:04:45.103Z,89.68
2023-05-21T05:05:45.066Z,89.07
2023-05-21T05:06:45.086Z,88.62
2023-05-21T05:07:45.045Z,88.11
2023-05-21T05:08:45.027Z,87.77
2023-05-21T05:09:45.039Z,87.85
2023-05-21T05:10:45.014Z,87.71
2023-05-21T05:11:44.995Z,87.57
2023-05-21T05:12:45.000Z,87.64
2023-05-21T05:13:44.989Z,87.67
2023-05-21T05:14:44.960Z,87.55
2023-05-21T05:15:45.535Z,87.48
2023-05-21T05:16:44.975Z,87.24
2023-05-21T05:17:44.957Z,87.38
2023-05-21T05:18:44.956Z,86.89
2023-05-21T05:19:44.879Z,87.17
2023-05-21T05:20:44.881Z,87.44
2023-05-21T05:21:44.906Z,87.50
2023-05-21T05:22:44.841Z,87.70
2023-05-21T05:23:44.850Z,87.77
2023-05-21T05:24:44.816Z,87.81
2023-05-21T05:25:44.799Z,87.93
2023-05-21T05:26:44.783Z,87.88
2023-05-21T05:27:44.786Z,87.81
2023-05-21T05:28:44.772Z,87.59
2023-05-21T05:29:44.753Z,87.55
2023-05-21T05:30:44.776Z,87.63
2023-05-21T05:31:44.723Z,87.62
2023-05-21T05:32:44.717Z,87.64
2023-05-21T05:33:44.689Z,87.74
2023-05-21T05:34:44.692Z,87.75
2023-05-21T05:35:44.649Z,87.64
2023-05-21T05:36:44.650Z,87.71
2023-05-21T05:37:44.655Z,87.68
2023-05-21T05:38:44.638Z,87.55
2023-05-21T05:39:44.600Z,87.64
2023-05-21T05:40:44.592Z,87.50
2023-05-21T05:41:44.565Z,87.44
2023-05-21T05:42:44.585Z,87.33
2023-05-21T05:43:44.550Z,87.33
2023-05-21T05:44:44.535Z,87.42
2023-05-21T05:45:44.510Z,87.49
2023-05-21T05:46:44.076Z,87.26
2023-05-21T05:47:44.519Z,86.92
2023-05-21T05:48:44.466Z,86.89
2023-05-21T05:49:44.461Z,86.96
2023-05-21T05:50:44.443Z,86.88
2023-05-21T05:51:44.447Z,86.96
2023-05-21T05:52:43.958Z,86.73
2023-05-21T05:53:43.003Z,86.86
2023-05-21T05:54:44.405Z,86.78
2023-05-21T05:55:44.381Z,86.79
2023-05-21T05:56:44.387Z,86.48
2023-05-21T05:57:45.199Z,86.43
2023-05-21T05:58:43.182Z,86.27
2023-05-21T05:59:42.833Z,86.17
2023-05-21T06:00:44.341Z,85.93
2023-05-21T06:01:43.084Z,86.00
2023-05-21T06:02:44.356Z,85.73
2023-05-21T06:03:44.345Z,85.93
2023-05-21T06:04:44.281Z,85.98
2023-05-21T06:05:44.313Z,86.02
2023-05-21T06:06:44.233Z,85.69
2023-05-21T06:07:44.239Z,85.76
2023-05-21T06:08:44.193Z,85.76
2023-05-21T06:09:44.185Z,85.78
2023-05-21T06:10:44.188Z,85.70
2023-05-21T06:11:44.163Z,85.68
2023-05-21T06:12:44.166Z,85.52
2023-05-21T06:13:44.150Z,85.39
2023-05-21T06:14:45.231Z,85.42
2023-05-21T06:15:44.146Z,85.33
2023-05-21T06:16:44.098Z,85.43
2023-05-21T06:17:44.096Z,85.39
2023-05-21T06:18:44.155Z,85.55
2023-05-21T06:19:44.059Z,85.53
2023-05-21T06:20:44.078Z,85.61
2023-05-21T06:21:44.058Z,85.41
2023-05-21T06:22:44.032Z,85.33
2023-05-21T06:23:43.988Z,85.08
2023-05-21T06:24:43.997Z,85.17
2023-05-21T06:25:43.980Z,85.11
2023-05-21T06:26:43.970Z,85.26
2023-05-21T06:27:43.947Z,85.13
2023-05-21T06:28:43.935Z,85.30
2023-05-21T06:29:43.919Z,85.35
2023-05-21T06:30:43.916Z,85.35
2023-05-21T06:31:43.881Z,85.16
2023-05-21T06:32:43.937Z,85.39
2023-05-21T06:33:43.986Z,85.12
2023-05-21T06:34:43.870Z,84.99
2023-05-21T06:35:43.876Z,85.15
2023-05-21T06:36:43.826Z,85.34
2023-05-21T06:37:43.804Z,85.54
2023-05-21T06:38:43.809Z,85.38
2023-05-21T06:39:43.782Z,85.40
2023-05-21T06:40:43.767Z,85.18
2023-05-21T06:41:43.761Z,85.10
2023-05-21T06:42:43.744Z,85.11
2023-05-21T06:43:43.735Z,85.15
2023-05-21T06:44:43.710Z,85.19
2023-05-21T06:45:43.719Z,85.33
2023-05-21T06:46:43.677Z,84.88
2023-05-21T06:47:43.771Z,84.91
2023-05-21T06:48:43.653Z,84.93
2023-05-21T06:49:43.640Z,84.86
2023-05-21T06:50:43.625Z,84.46
2023-05-21T06:51:43.637Z,84.58
2023-05-21T06:52:43.611Z,84.73
2023-05-21T06:53:43.583Z,84.61
2023-05-21T06:54:43.584Z,84.56
2023-05-21T06:55:41.594Z,84.19
2023-05-21T06:56:43.538Z,84.42
2023-05-21T06:57:43.532Z,84.78
2023-05-21T06:58:43.499Z,84.61
2023-05-21T06:59:43.504Z,84.20
2023-05-21T07:00:43.494Z,84.17
2023-05-21T07:01:43.528Z,83.99
2023-05-21T07:02:43.535Z,84.01
2023-05-21T07:03:43.519Z,83.89
2023-05-21T07:04:43.457Z,83.61
2023-05-21T07:05:43.404Z,83.71
2023-05-21T07:06:43.404Z,83.46
2023-05-21T07:07:43.409Z,83.36
2023-05-21T07:08:43.377Z,82.96
2023-05-21T07:09:43.363Z,82.86
2023-05-21T07:10:43.342Z,82.44
2023-05-21T07:11:43.344Z,82.31
2023-05-21T07:12:43.328Z,81.58
2023-05-21T07:13:43.355Z,80.62
2023-05-21T07:14:43.297Z,80.25
2023-05-21T07:15:43.302Z,80.17
2023-05-21T07:16:43.361Z,79.74
2023-05-21T07:17:43.285Z,79.61
2023-05-21T07:18:43.240Z,79.07
2023-05-21T07:19:43.237Z,78.60
2023-05-21T07:20:43.212Z,77.55
2023-05-21T07:21:43.201Z,76.24
2023-05-21T07:22:43.173Z,75.61
2023-05-21T07:23:43.183Z,74.45
2023-05-21T07:24:43.139Z,73.62
2023-05-21T07:25:43.144Z,73.07
2023-05-21T07:26:43.140Z,72.14
2023-05-21T07:27:43.138Z,71.45
2023-05-21T07:28:43.102Z,70.24
2023-05-21T07:29:43.100Z,69.42
2023-05-21T07:30:43.130Z,68.58
2023-05-21T07:31:43.076Z,67.84
2023-05-21T07:32:43.078Z,67.88
2023-05-21T07:33:43.060Z,66.84
2023-05-21T07:34:43.027Z,65.19
2023-05-21T07:35:43.025Z,65.20
2023-05-21T07:36:42.984Z,64.92
2023-05-21T07:37:43.038Z,65.46
2023-05-21T07:38:42.971Z,66.07
2023-05-21T07:39:42.962Z,65.63
2023-05-21T07:40:42.969Z,65.69
2023-05-21T07:41:42.925Z,65.10
2023-05-21T07:42:42.899Z,64.25
2023-05-21T07:43:42.899Z,64.66
2023-05-21T07:44:42.896Z,64.32
2023-05-21T07:45:42.885Z,64.66
2023-05-21T07:46:42.944Z,65.50
2023-05-21T07:47:42.860Z,64.97
2023-05-21T07:48:42.825Z,65.31
2023-05-21T07:49:42.830Z,65.81
2023-05-21T07:50:42.806Z,65.81
2023-05-21T07:51:42.792Z,65.30
2023-05-21T07:52:42.803Z,65.68
2023-05-21T07:53:42.758Z,65.71
2023-05-21T07:54:42.759Z,65.34
2023-05-21T07:55:42.728Z,64.73
2023-05-21T07:56:42.709Z,63.70
2023-05-21T07:57:42.730Z,63.18
2023-05-21T07:58:42.701Z,63.12
2023-05-21T07:59:42.703Z,62.48
2023-05-21T08:00:42.678Z,61.67
2023-05-21T08:01:42.657Z,62.76
2023-05-21T08:02:42.716Z,63.11
2023-05-21T08:03:42.761Z,62.99
2023-05-21T08:04:42.643Z,63.31
2023-05-21T08:05:42.589Z,63.57
2023-05-21T08:06:42.112Z,63.74
2023-05-21T08:07:42.559Z,64.03
2023-05-21T08:08:42.559Z,64.54
2023-05-21T08:09:42.546Z,64.80
2023-05-21T08:10:42.540Z,65.38
2023-05-21T08:11:42.532Z,65.63
2023-05-21T08:12:42.522Z,65.26
2023-05-21T08:13:42.507Z,65.46
2023-05-21T08:14:42.478Z,65.46
2023-05-21T08:15:40.755Z,66.28
2023-05-21T08:16:42.603Z,66.51
2023-05-21T08:17:42.553Z,66.62
2023-05-21T08:18:42.469Z,66.64
2023-05-21T08:19:42.436Z,66.93
2023-05-21T08:20:42.483Z,66.43
2023-05-21T08:21:42.412Z,66.30
2023-05-21T08:22:40.561Z,66.13
2023-05-21T08:23:42.368Z,66.16
2023-05-21T08:24:42.380Z,66.28
2023-05-21T08:25:42.382Z,66.56
2023-05-21T08:26:45.489Z,66.32
2023-05-21T08:27:41.645Z,66.58
2023-05-21T08:28:42.386Z,66.16
2023-05-21T08:29:42.324Z,65.93
2023-05-21T08:30:42.307Z,65.78
2023-05-21T08:31:42.337Z,66.60
2023-05-21T08:32:42.312Z,67.25
2023-05-21T08:33:42.254Z,67.45
2023-05-21T08:34:42.230Z,67.24
2023-05-21T08:35:42.209Z,67.39
2023-05-21T08:36:41.833Z,67.37
2023-05-21T08:37:42.207Z,68.05
2023-05-21T08:38:42.169Z,66.98
2023-05-21T08:39:42.152Z,66.90
2023-05-21T08:40:42.129Z,67.03
2023-05-21T08:41:42.146Z,67.21
2023-05-21T08:42:42.119Z,67.06
2023-05-21T08:43:42.152Z,67.68
2023-05-21T08:44:42.087Z,67.77
2023-05-21T08:45:42.090Z,67.58
2023-05-21T08:46:42.056Z,67.49
2023-05-21T08:47:42.071Z,68.02
2023-05-21T08:48:42.018Z,68.26
2023-05-21T08:49:42.011Z,68.64
2023-05-21T08:50:42.097Z,68.80
2023-05-21T08:51:42.030Z,68.09
2023-05-21T08:52:41.982Z,68.42
2023-05-21T08:53:41.961Z,68.27
2023-05-21T08:54:41.968Z,68.59
2023-05-21T08:55:41.991Z,68.37
2023-05-21T08:56:41.929Z,68.61
2023-05-21T08:57:41.924Z,68.26
2023-05-21T08:58:41.905Z,68.55
2023-05-21T08:59:41.465Z,68.96
2023-05-21T09:00:41.898Z,68.13
2023-05-21T09:01:40.956Z,68.03
2023-05-21T09:02:41.893Z,67.38
2023-05-21T09:03:41.906Z,67.38
2023-05-21T09:04:41.912Z,67.04
2023-05-21T09:05:41.803Z,66.80
2023-05-21T09:06:41.827Z,66.58
2023-05-21T09:07:41.787Z,66.23
2023-05-21T09:08:40.066Z,65.73
2023-05-21T09:09:41.992Z,65.96
2023-05-21T09:10:41.744Z,65.96
2023-05-21T09:11:41.735Z,65.39
2023-05-21T09:12:41.821Z,65.31
2023-05-21T09:13:41.704Z,64.99
2023-05-21T09:14:41.682Z,65.45
2023-05-21T09:15:41.669Z,65.43
2023-05-21T09:16:41.691Z,64.98
2023-05-21T09:17:41.690Z,64.81
2023-05-21T09:18:39.701Z,63.65
2023-05-21T09:19:41.500Z,64.17
2023-05-21T09:20:41.609Z,64.51
2023-05-21T09:21:41.582Z,64.54
2023-05-21T09:22:41.603Z,64.61
2023-05-21T09:23:41.588Z,64.97
2023-05-21T09:24:41.593Z,64.28
2023-05-21T09:25:41.566Z,63.98
2023-05-21T09:26:41.641Z,63.59
2023-05-21T09:27:41.577Z,62.07
2023-05-21T09:28:41.505Z,61.35
2023-05-21T09:29:41.581Z,60.97
2023-05-21T09:30:41.733Z,60.61
2023-05-21T09:31:41.499Z,60.17
2023-05-21T09:32:41.493Z,60.76
2023-05-21T09:33:41.465Z,59.68
2023-05-21T09:34:41.420Z,59.82
2023-05-21T09:35:41.393Z,58.30
2023-05-21T09:36:41.425Z,58.94
2023-05-21T09:37:41.400Z,57.78
2023-05-21T09:38:41.378Z,55.96
2023-05-21T09:39:41.350Z,55.00
2023-05-21T09:40:41.351Z,54.43
2023-05-21T09:41:41.699Z,54.22
2023-05-21T09:42:40.652Z,53.48
2023-05-21T09:43:41.326Z,53.14
2023-05-21T09:44:41.266Z,52.00
2023-05-21T09:45:41.460Z,51.39
2023-05-21T09:46:41.794Z,50.86
2023-05-21T09:47:41.267Z,51.02
2023-05-21T09:48:41.231Z,51.17
2023-05-21T09:49:41.235Z,51.44
2023-05-21T09:50:41.390Z,52.20
2023-05-21T09:51:41.185Z,51.86
2023-05-21T09:52:42.292Z,50.99
2023-05-21T09:53:41.169Z,51.35
2023-05-21T09:54:41.171Z,51.04
2023-05-21T09:55:41.191Z,49.30
2023-05-21T09:56:41.134Z,48.54
2023-05-21T09:57:41.154Z,49.24
2023-05-21T09:58:41.106Z,48.57
2023-05-21T09:59:41.129Z,49.47
2023-05-21T10:00:41.113Z,49.71
2023-05-21T10:01:41.206Z,51.33
2023-05-21T10:02:41.109Z,51.87
2023-05-21T10:03:41.095Z,52.67
2023-05-21T10:04:41.091Z,53.55
2023-05-21T10:05:41.017Z,53.97
2023-05-21T10:06:41.019Z,55.22
2023-05-21T10:07:40.989Z,55.19
2023-05-21T10:08:40.999Z,56.43
2023-05-21T10:09:40.961Z,57.43
2023-05-21T10:10:40.457Z,58.18
2023-05-21T10:11:40.951Z,57.62
2023-05-21T10:12:40.917Z,58.06
2023-05-21T10:13:40.914Z,58.83
2023-05-21T10:14:40.893Z,58.22
2023-05-21T10:15:40.897Z,58.37
2023-05-21T10:16:40.962Z,58.23
2023-05-21T10:17:40.898Z,57.36
2023-05-21T10:18:40.865Z,56.79
2023-05-21T10:19:40.855Z,55.54
2023-05-21T10:20:40.837Z,54.67
2023-05-21T10:21:40.818Z,55.08
2023-05-21T10:22:40.797Z,54.47
2023-05-21T10:23:40.791Z,54.10
2023-05-21T10:24:38.942Z,53.07
2023-05-21T10:25:40.779Z,52.92
2023-05-21T10:26:40.836Z,54.17
2023-05-21T10:27:40.730Z,55.05
2023-05-21T10:28:39.062Z,55.11
2023-05-21T10:29:40.762Z,55.90
2023-05-21T10:30:39.526Z,55.30
2023-05-21T10:31:40.785Z,54.21
2023-05-21T10:32:40.860Z,53.40
2023-05-21T10:33:40.652Z,51.27
2023-05-21T10:34:40.661Z,50.44
2023-05-21T10:35:40.647Z,49.26
2023-05-21T10:36:40.609Z,48.81
2023-05-21T10:37:40.609Z,48.65
2023-05-21T10:38:40.586Z,47.69
2023-05-21T10:39:40.632Z,48.86
2023-05-21T10:40:40.583Z,47.97
2023-05-21T10:41:40.552Z,47.21
2023-05-21T10:42:40.571Z,47.32
2023-05-21T10:43:40.555Z,48.30
2023-05-21T10:44:40.528Z,48.51
2023-05-21T10:45:40.570Z,47.55
2023-05-21T10:46:40.491Z,46.56
2023-05-21T10:47:40.537Z,46.38
2023-05-21T10:48:40.498Z,46.18
2023-05-21T10:49:40.477Z,46.02
2023-05-21T10:50:40.489Z,46.38
2023-05-21T10:51:40.436Z,46.64
2023-05-21T10:52:40.446Z,45.94
2023-05-21T10:53:40.417Z,47.34
2023-05-21T10:54:40.398Z,46.91
2023-05-21T10:55:40.411Z,46.72
2023-05-21T10:56:40.378Z,47.73
2023-05-21T10:57:40.378Z,49.35
2023-05-21T10:58:40.368Z,48.96
2023-05-21T10:59:40.353Z,48.34
2023-05-21T11:00:40.341Z,48.25
2023-05-21T11:01:40.421Z,48.73
2023-05-21T11:02:40.408Z,49.12
2023-05-21T11:03:39.473Z,49.07
2023-05-21T11:04:40.310Z,50.16
2023-05-21T11:05:40.462Z,49.82
2023-05-21T11:06:40.279Z,51.44
2023-05-21T11:07:40.263Z,51.45
2023-05-21T11:08:40.242Z,51.91
2023-05-21T11:09:40.220Z,52.09
2023-05-21T11:10:40.296Z,52.65
2023-05-21T11:11:40.182Z,52.20
2023-05-21T11:12:40.180Z,53.04
2023-05-21T11:13:40.165Z,53.29
2023-05-21T11:14:40.329Z,53.23
2023-05-21T11:15:39.638Z,53.71
2023-05-21T11:16:40.202Z,52.63
2023-05-21T11:17:40.165Z,52.84
2023-05-21T11:18:40.090Z,53.70
2023-05-21T11:19:40.195Z,53.54
2023-05-21T11:20:40.067Z,53.56
2023-05-21T11:21:40.075Z,53.86
2023-05-21T11:22:40.061Z,53.80
2023-05-21T11:23:40.039Z,53.92
2023-05-21T11:24:40.017Z,53.05
2023-05-21T11:25:39.998Z,52.86
2023-05-21T11:26:39.999Z,53.14
2023-05-21T11:27:40.055Z,54.19
2023-05-21T11:28:39.964Z,54.02
2023-05-21T11:29:39.963Z,54.09
2023-05-21T11:30:41.115Z,53.98
2023-05-21T11:31:40.454Z,54.00
2023-05-21T11:32:40.032Z,54.41
2023-05-21T11:33:39.899Z,54.48
2023-05-21T11:34:39.900Z,54.44
2023-05-21T11:35:39.883Z,54.14
2023-05-21T11:36:39.851Z,54.31
2023-05-21T11:37:39.839Z,54.37
2023-05-21T11:38:39.843Z,53.56
2023-05-21T11:39:40.101Z,53.67
2023-05-21T11:40:38.612Z,53.58
2023-05-21T11:41:39.805Z,54.15
2023-05-21T11:42:39.787Z,53.86
2023-05-21T11:43:39.762Z,53.68
2023-05-21T11:44:39.752Z,53.72
2023-05-21T11:45:39.744Z,53.99
2023-05-21T11:46:39.775Z,54.06
2023-05-21T11:47:39.775Z,53.78
2023-05-21T11:48:39.704Z,53.90
2023-05-21T11:49:39.705Z,54.03
2023-05-21T11:50:39.892Z,53.85
2023-05-21T11:51:39.667Z,54.35
2023-05-21T11:52:39.642Z,54.30
2023-05-21T11:53:39.632Z,53.88
2023-05-21T11:54:39.641Z,53.36
2023-05-21T11:55:39.641Z,53.43
2023-05-21T11:56:39.600Z,53.01
2023-05-21T11:57:39.566Z,52.82
2023-05-21T11:58:39.563Z,52.25
2023-05-21T11:59:39.566Z,51.08
2023-05-21T12:00:39.531Z,52.24
2023-05-21T12:01:39.559Z,51.46
2023-05-21T12:02:39.775Z,50.90
2023-05-21T12:03:39.718Z,51.44
2023-05-21T12:04:39.498Z,51.92
2023-05-21T12:05:37.663Z,51.66
2023-05-21T12:06:39.461Z,50.90
2023-05-21T12:07:39.459Z,51.16
2023-05-21T12:08:39.440Z,51.66
2023-05-21T12:09:39.463Z,51.91
2023-05-21T12:10:39.415Z,51.73
2023-05-21T12:11:39.395Z,51.91
2023-05-21T12:12:53.357Z,52.56
2023-05-21T12:13:40.386Z,51.89
2023-05-21T12:14:39.353Z,51.27
2023-05-21T12:15:39.343Z,51.44
2023-05-21T12:16:39.397Z,51.06
2023-05-21T12:17:39.373Z,51.02
2023-05-21T12:18:39.324Z,50.12
2023-05-21T12:19:39.285Z,50.51
2023-05-21T12:20:39.305Z,50.89
2023-05-21T12:21:39.266Z,51.91
2023-05-21T12:22:39.278Z,51.88
2023-05-21T12:23:39.259Z,51.56
2023-05-21T12:24:39.226Z,51.72
2023-05-21T12:25:39.231Z,51.29
2023-05-21T12:26:39.200Z,50.84
2023-05-21T12:27:38.812Z,51.60
2023-05-21T12:28:39.190Z,50.59
2023-05-21T12:29:39.158Z,51.61
2023-05-21T12:30:39.233Z,51.60
2023-05-21T12:31:39.179Z,51.40
2023-05-21T12:32:39.147Z,51.76
2023-05-21T12:33:39.122Z,51.09
2023-05-21T12:34:39.088Z,51.09
2023-05-21T12:35:39.140Z,51.00
2023-05-21T12:36:39.054Z,50.74
2023-05-21T12:37:39.059Z,50.29
2023-05-21T12:38:39.035Z,50.34
2023-05-21T12:39:39.022Z,50.06
2023-05-21T12:40:40.064Z,49.35
2023-05-21T12:41:39.024Z,49.18
2023-05-21T12:42:39.027Z,48.82
2023-05-21T12:43:38.980Z,48.54
2023-05-21T12:44:38.975Z,48.15
2023-05-21T12:45:38.963Z,49.01
2023-05-21T12:46:39.034Z,49.12
2023-05-21T12:47:39.812Z,49.15
2023-05-21T12:48:38.914Z,48.40
2023-05-21T12:49:38.925Z,49.40
2023-05-21T12:50:39.107Z,49.58
2023-05-21T12:51:38.896Z,51.24
2023-05-21T12:52:38.869Z,51.00